Terminal Aerodrome Forecast
Issued by NWS Charleston, WV

Current Version | Previous Version | Text Only | Print | Product List | Glossary Off
Versions: 1 2 3 4 5 6 7 8 9 10 11 12 13 14 15 16 17 18 19 20 21 22 23 24 25 26 27 28 29

000
FTUS41 KRLX 272200 AAB
TAFPKB
TAF AMD
KPKB 272232Z 2723/2818 32006KT 3SM -SHSN BKN025
      TEMPO 2723/2801 2SM -SHSN
     FM280100 32006KT P6SM BKN025
     FM280500 32004KT P6SM SCT025
     FM280800 00000KT P6SM SCT200=

USA.gov is the U.S. government's official web portal to all federal, state and local government web resources and services.